Time;durP1;ratioP1;P1;durP2;ratioP2;P2;SDS_P1;SDS_P2;PMS_P1;PMS_P2;Temp;Humidity;BMP_temperature;BMP_pressure;BME280_temperature;BME280_humidity;BME280_pressure;Samples;Min_cycle;Max_cycle;Signal;HPM_P1;HPM_P2
2022/11/12 00:00:58;;;;;;;21.33;14.05;;;;;;;4.52;100.00;103127.66;5027697;28;20040;-77
2022/11/12 00:03:41;;;;;;;22.25;13.57;;;;;;;4.52;100.00;103119.78;5028331;28;20148;-77
2022/11/12 00:06:25;;;;;;;27.20;13.32;;;;;;;4.57;100.00;103117.31;5037003;28;20053;-77
2022/11/12 00:09:09;;;;;;;23.17;13.82;;;;;;;4.60;100.00;103125.34;5031580;28;20119;-77
2022/11/12 00:11:53;;;;;;;19.67;12.73;;;;;;;4.57;100.00;103125.19;5035494;28;20052;-77
2022/11/12 00:14:37;;;;;;;15.90;11.20;;;;;;;4.55;100.00;103131.22;5028962;28;20064;-77
2022/11/12 00:17:21;;;;;;;22.90;12.18;;;;;;;4.52;100.00;103132.00;5033860;28;20556;-78
2022/11/12 00:20:06;;;;;;;19.17;12.43;;;;;;;4.45;100.00;103138.75;5030494;28;20164;-78
2022/11/12 00:22:50;;;;;;;20.02;12.40;;;;;;;4.41;100.00;103135.94;5036406;28;20052;-78
2022/11/12 00:25:34;;;;;;;18.13;11.30;;;;;;;4.38;100.00;103131.47;5024701;28;20056;-78
2022/11/12 00:28:18;;;;;;;18.80;12.32;;;;;;;4.36;100.00;103137.47;5028812;28;20065;-78
2022/11/12 00:31:10;;;;;;;19.25;12.27;;;;;;;4.35;100.00;103135.66;5032361;28;20462;-78
2022/11/12 00:33:55;;;;;;;20.30;12.93;;;;;;;4.34;100.00;103140.03;5029885;28;20099;-78
2022/11/12 00:36:38;;;;;;;21.30;13.48;;;;;;;4.34;100.00;103139.13;5035111;28;20147;-78
2022/11/12 00:39:22;;;;;;;19.15;12.05;;;;;;;4.29;100.00;103146.81;5027658;28;20138;-78
2022/11/12 00:42:06;;;;;;;22.40;13.32;;;;;;;4.26;100.00;103150.22;5036644;28;20048;-78
2022/11/12 00:44:50;;;;;;;22.55;13.25;;;;;;;4.24;100.00;103141.38;5016245;28;20134;-78
2022/11/12 00:47:34;;;;;;;21.40;13.95;;;;;;;4.26;100.00;103141.44;5030693;28;20056;-78
2022/11/12 00:50:18;;;;;;;23.10;13.02;;;;;;;4.26;100.00;103141.44;5039691;28;20052;-78
2022/11/12 00:53:02;;;;;;;20.80;13.32;;;;;;;4.26;100.00;103137.09;5035089;28;20452;-78
2022/11/12 00:55:46;;;;;;;26.38;14.15;;;;;;;4.25;100.00;103131.78;5037066;28;20056;-78
2022/11/12 00:58:32;;;;;;;21.25;13.80;;;;;;;4.25;100.00;103135.31;5013341;28;20532;-78
2022/11/12 01:01:16;;;;;;;25.77;16.05;;;;;;;4.24;100.00;103133.50;5027588;28;20096;-78
2022/11/12 01:04:00;;;;;;;23.45;14.10;;;;;;;4.19;99.30;103132.44;5026114;28;20049;-78
2022/11/12 01:06:44;;;;;;;23.73;14.75;;;;;;;4.14;99.36;103144.44;5042089;28;20457;-78
2022/11/12 01:09:28;;;;;;;23.52;14.43;;;;;;;4.09;99.78;103140.75;5046464;28;20131;-78
2022/11/12 01:12:12;;;;;;;21.80;14.43;;;;;;;4.06;99.58;103133.66;5036565;28;20397;-78
2022/11/12 01:14:56;;;;;;;25.33;15.38;;;;;;;4.02;99.62;103136.06;5038941;28;20051;-78
2022/11/12 01:17:40;;;;;;;23.02;15.07;;;;;;;4.01;100.00;103136.91;5043907;28;20052;-78
2022/11/12 01:20:24;;;;;;;24.17;15.30;;;;;;;4.01;100.00;103139.53;5030703;28;20057;-78
2022/11/12 01:23:07;;;;;;;23.98;14.85;;;;;;;3.98;100.00;103139.38;5037581;28;20087;-78
2022/11/12 01:25:51;;;;;;;23.55;14.75;;;;;;;3.95;100.00;103131.41;5033397;28;20124;-78
2022/11/12 01:28:35;;;;;;;20.90;14.63;;;;;;;3.91;100.00;103129.47;5023566;28;20084;-78
2022/11/12 01:31:20;;;;;;;19.45;13.75;;;;;;;3.88;100.00;103128.53;5036896;28;20044;-78
2022/11/12 01:34:07;;;;;;;19.92;13.77;;;;;;;3.84;100.00;103129.22;5033951;28;20048;-78
2022/11/12 01:36:51;;;;;;;21.25;14.48;;;;;;;3.82;99.96;103123.03;5038021;28;20057;-78
2022/11/12 01:39:35;;;;;;;20.88;14.02;;;;;;;3.78;100.00;103118.47;5046073;28;20052;-78
2022/11/12 01:42:19;;;;;;;25.35;14.02;;;;;;;3.76;100.00;103124.47;5020164;28;20056;-78
2022/11/12 01:45:14;;;;;;;20.40;14.18;;;;;;;3.72;100.00;103126.06;5040056;28;20063;-78
2022/11/12 01:47:59;;;;;;;21.60;14.48;;;;;;;3.67;100.00;103125.00;5032164;28;20693;-78
2022/11/12 01:50:43;;;;;;;22.70;14.00;;;;;;;3.62;100.00;103119.53;5039249;28;20069;-78
2022/11/12 01:53:31;;;;;;;22.13;12.77;;;;;;;3.58;100.00;103116.72;5030394;28;20048;-78
2022/11/12 01:56:17;;;;;;;22.63;13.65;;;;;;;3.53;99.69;103123.50;5032331;28;20048;-78
2022/11/12 01:59:06;;;;;;;19.45;12.88;;;;;;;3.47;100.00;103123.25;5036125;28;20049;-78
2022/11/12 02:01:50;;;;;;;22.30;12.63;;;;;;;3.42;100.00;103116.06;5033035;28;20072;-78
2022/11/12 02:04:37;;;;;;;17.83;12.85;;;;;;;3.41;99.94;103121.22;5037857;28;20405;-78
2022/11/12 02:07:23;;;;;;;20.88;13.90;;;;;;;3.38;100.00;103115.84;5035709;28;20049;-78
2022/11/12 02:10:08;;;;;;;18.48;12.10;;;;;;;3.36;100.00;103113.19;5045241;28;20055;-78
2022/11/12 02:15:57;;;;;;;18.50;12.13;;;;;;;3.33;100.00;103117.38;5028677;28;20072;-78
2022/11/12 02:18:40;;;;;;;16.58;11.50;;;;;;;3.29;100.00;103108.50;5035616;28;20048;-78
2022/11/12 02:21:25;;;;;;;20.42;12.73;;;;;;;3.30;100.00;103110.28;5034181;28;20123;-78
2022/11/12 02:24:12;;;;;;;17.95;12.10;;;;;;;3.29;100.00;103110.19;5024923;28;20053;-78
2022/11/12 02:26:56;;;;;;;16.73;11.60;;;;;;;3.31;100.00;103108.56;5046342;28;20388;-78
2022/11/12 02:29:45;;;;;;;28.08;11.93;;;;;;;3.32;100.00;103111.25;5030359;28;20048;-78
2022/11/12 02:32:29;;;;;;;18.52;11.57;;;;;;;3.31;100.00;103111.16;5049622;28;20373;-73
2022/11/12 02:35:14;;;;;;;20.35;12.43;;;;;;;3.31;100.00;103114.69;5050247;28;20129;-73
2022/11/12 02:37:58;;;;;;;17.27;12.07;;;;;;;3.29;100.00;103118.97;5046038;28;20455;-73
2022/11/12 02:40:42;;;;;;;20.00;11.10;;;;;;;3.28;100.00;103118.91;5046185;28;20492;-73
2022/11/12 02:43:26;;;;;;;18.30;11.32;;;;;;;3.25;100.00;103118.75;5046701;28;20048;-73
2022/11/12 02:46:10;;;;;;;16.85;10.93;;;;;;;3.24;100.00;103110.03;5049425;28;20124;-73
2022/11/12 02:48:54;;;;;;;17.08;10.40;;;;;;;3.26;100.00;103110.06;5045882;28;20057;-73
2022/11/12 02:51:38;;;;;;;17.98;10.68;;;;;;;3.25;100.00;103109.19;5032226;28;20087;-73
2022/11/12 02:54:22;;;;;;;17.48;10.77;;;;;;;3.25;100.00;103103.94;5011365;28;20080;-73
2022/11/12 02:57:06;;;;;;;15.48;10.15;;;;;;;3.26;100.00;103102.22;5029118;28;20060;-73
2022/11/12 02:59:50;;;;;;;19.10;9.98;;;;;;;3.27;100.00;103102.28;5041304;28;20500;-73
2022/11/12 03:02:34;;;;;;;18.02;11.27;;;;;;;3.26;100.00;103090.00;5031723;28;20183;-73
2022/11/12 03:05:17;;;;;;;13.93;10.35;;;;;;;3.28;100.00;103095.31;5030394;28;20061;-73
2022/11/12 03:08:05;;;;;;;15.18;10.70;;;;;;;3.28;100.00;103093.59;5031520;28;20098;-73
2022/11/12 03:10:49;;;;;;;17.48;10.20;;;;;;;3.29;100.00;103094.47;5030884;28;20056;-73
2022/11/12 03:13:34;;;;;;;16.50;10.63;;;;;;;3.26;100.00;103097.88;5031897;28;20516;-73
2022/11/12 03:16:18;;;;;;;19.02;10.63;;;;;;;3.24;100.00;103094.31;5030749;28;20103;-73
2022/11/12 03:19:02;;;;;;;14.63;10.10;;;;;;;3.21;100.00;103096.75;5031896;28;20051;-73
2022/11/12 03:21:46;;;;;;;16.63;10.75;;;;;;;3.19;100.00;103101.03;5031297;28;20067;-73
2022/11/12 03:24:29;;;;;;;12.88;9.50;;;;;;;3.14;100.00;103098.25;5030420;28;20048;-73
2022/11/12 03:27:14;;;;;;;16.63;10.52;;;;;;;3.13;100.00;103092.91;5031728;28;20134;-73
2022/11/12 03:29:58;;;;;;;14.65;9.57;;;;;;;3.13;100.00;103101.66;5031345;28;20039;-73
2022/11/12 03:32:42;;;;;;;14.45;9.85;;;;;;;3.13;100.00;103099.03;5031554;28;20051;-73
2022/11/12 03:35:26;;;;;;;15.40;9.27;;;;;;;3.12;100.00;103107.75;5031507;28;20151;-73
2022/11/12 03:38:10;;;;;;;14.32;9.88;;;;;;;3.13;100.00;103103.41;5029169;28;20176;-73
2022/11/12 03:40:54;;;;;;;14.50;9.52;;;;;;;3.10;100.00;103109.38;5030076;28;20136;-73
2022/11/12 03:43:38;;;;;;;15.43;9.50;;;;;;;3.09;100.00;103105.00;5025931;28;20057;-73
2022/11/12 03:46:23;;;;;;;16.10;9.90;;;;;;;3.08;100.00;103116.28;5017506;28;20095;-73
2022/11/12 03:49:07;;;;;;;13.82;9.43;;;;;;;3.09;100.00;103109.31;5016426;28;20103;-73
2022/11/12 03:51:51;;;;;;;13.70;8.48;;;;;;;3.11;100.00;103113.78;5029984;28;20099;-73
2022/11/12 03:54:35;;;;;;;14.55;9.02;;;;;;;3.12;100.00;103109.47;5031359;28;20060;-73
2022/11/12 03:57:20;;;;;;;15.43;9.10;;;;;;;3.12;100.00;103109.47;5031128;28;20091;-73
2022/11/12 04:00:09;;;;;;;14.90;9.27;;;;;;;3.11;100.00;103116.41;5030125;28;20071;-73
2022/11/12 04:02:53;;;;;;;14.02;9.00;;;;;;;3.12;100.00;103118.22;5031036;28;20449;-73
2022/11/12 04:08:40;;;;;;;12.68;8.65;;;;;;;3.09;100.00;103119.78;5031169;28;20102;-73
2022/11/12 04:11:24;;;;;;;12.52;8.55;;;;;;;3.07;100.00;103111.88;5029979;28;20420;-73
2022/11/12 04:14:08;;;;;;;13.35;9.15;;;;;;;3.05;100.00;103108.28;5029653;28;20119;-73
2022/11/12 04:22:58;;;;;;;11.82;8.10;;;;;;;3.10;100.00;103098.91;5033762;28;20110;-73
2022/11/12 04:31:48;;;;;;;13.05;8.13;;;;;;;3.02;100.00;103079.38;5034876;28;20532;-73
2022/11/12 04:34:33;;;;;;;11.35;8.00;;;;;;;2.97;100.00;103076.53;5034810;28;20099;-73
2022/11/12 04:37:18;;;;;;;13.05;8.00;;;;;;;3.00;100.00;103087.13;5033367;28;20499;-73
2022/11/12 04:44:58;;;;;;;12.95;7.97;;;;;;;2.97;100.00;103089.63;5046848;28;20040;-73
2022/11/12 04:46:15;;;;;;;11.93;8.00;;;;;;;2.93;100.00;103090.28;5052350;28;20106;-73
2022/11/12 04:48:59;;;;;;;16.23;8.88;;;;;;;2.90;100.00;103079.69;5053667;28;20056;-73
2022/11/12 04:54:47;;;;;;;11.88;8.32;;;;;;;2.83;100.00;103076.72;5033123;28;20133;-78
2022/11/12 04:57:31;;;;;;;13.75;7.68;;;;;;;2.80;100.00;103070.53;5027013;28;20514;-78
2022/11/12 05:00:16;;;;;;;13.10;8.25;;;;;;;2.82;100.00;103080.16;5038710;28;20508;-78
2022/11/12 05:03:00;;;;;;;12.15;8.48;;;;;;;2.82;100.00;103074.91;5028148;28;20048;-78
2022/11/12 05:05:44;;;;;;;11.98;8.45;;;;;;;2.85;100.00;103069.84;5030071;28;20444;-78
2022/11/12 05:08:28;;;;;;;12.73;8.45;;;;;;;2.83;100.00;103068.88;5037639;28;20543;-77
2022/11/12 05:11:12;;;;;;;14.13;8.60;;;;;;;2.82;100.00;103065.38;5018914;28;20076;-78
2022/11/12 05:13:56;;;;;;;14.98;8.50;;;;;;;2.84;100.00;103060.19;5040126;28;20072;-78
2022/11/12 05:16:40;;;;;;;10.93;7.75;;;;;;;2.86;100.00;103066.41;5034830;28;20168;-78
2022/11/12 05:19:24;;;;;;;13.13;7.43;;;;;;;2.87;100.00;103065.56;5027874;28;20079;-73
2022/11/12 05:22:10;;;;;;;15.93;8.77;;;;;;;2.88;100.00;103073.50;5046885;28;20126;-73
2022/11/12 05:24:54;;;;;;;13.93;7.50;;;;;;;2.88;100.00;103059.50;5051965;28;20427;-73
2022/11/12 05:27:38;;;;;;;15.93;8.23;;;;;;;2.87;100.00;103053.41;5046246;28;20065;-73
2022/11/12 05:30:23;;;;;;;15.18;8.15;;;;;;;2.86;100.00;103050.69;5044474;28;20068;-73
2022/11/12 05:33:07;;;;;;;13.77;8.23;;;;;;;2.87;100.00;103042.00;5031157;28;20125;-73
2022/11/12 05:35:52;;;;;;;13.07;8.18;;;;;;;2.84;100.00;103049.72;5049019;28;20071;-73
2022/11/12 05:38:37;;;;;;;12.75;7.75;;;;;;;2.82;100.00;103044.44;5044228;28;20131;-73
2022/11/12 05:41:21;;;;;;;15.32;8.43;;;;;;;2.82;100.00;103049.69;5041406;28;20051;-73
2022/11/12 05:44:05;;;;;;;14.32;8.57;;;;;;;2.80;100.00;103038.25;5048413;28;20071;-73
2022/11/12 05:46:50;;;;;;;13.02;8.18;;;;;;;2.79;100.00;103045.19;5044663;28;20128;-73
2022/11/12 05:49:34;;;;;;;14.98;8.23;;;;;;;2.80;100.00;103040.84;5049364;28;20060;-73
2022/11/12 05:52:18;;;;;;;12.70;8.85;;;;;;;2.80;100.00;103054.81;5047339;28;20410;-73
2022/11/12 05:55:02;;;;;;;18.38;9.07;;;;;;;2.79;100.00;103041.66;5050047;28;20086;-73
2022/11/12 05:57:46;;;;;;;14.63;8.65;;;;;;;2.78;100.00;103060.81;5046435;28;20129;-73
2022/11/12 06:00:30;;;;;;;13.45;8.18;;;;;;;2.76;100.00;103058.13;5044870;28;20177;-73
2022/11/12 06:03:14;;;;;;;15.75;8.50;;;;;;;2.75;100.00;103061.56;5050951;28;20072;-73
2022/11/12 06:05:58;;;;;;;14.55;7.97;;;;;;;2.73;100.00;103057.97;5049579;28;20385;-73
2022/11/12 06:08:42;;;;;;;13.23;8.13;;;;;;;2.72;100.00;103056.22;5045715;28;20124;-73
2022/11/12 06:11:26;;;;;;;13.05;8.23;;;;;;;2.71;100.00;103058.75;5028401;28;20216;-73
2022/11/12 06:14:10;;;;;;;11.52;7.53;;;;;;;2.70;100.00;103056.97;5031410;28;20048;-77
2022/11/12 06:16:54;;;;;;;13.07;7.82;;;;;;;2.69;100.00;103056.03;5036668;28;20053;-78
2022/11/12 06:19:38;;;;;;;15.68;8.63;;;;;;;2.66;100.00;103055.03;5023820;28;20111;-78
2022/11/12 06:22:22;;;;;;;13.10;7.45;;;;;;;2.63;100.00;103062.72;5039430;28;20044;-78
2022/11/12 06:25:06;;;;;;;14.15;8.45;;;;;;;2.59;100.00;103064.28;5041048;28;20133;-78
2022/11/12 06:27:50;;;;;;;14.68;8.13;;;;;;;2.58;100.00;103070.38;5041213;28;20516;-78
2022/11/12 06:30:34;;;;;;;13.50;8.63;;;;;;;2.54;100.00;103058.84;5031486;28;20056;-78
2022/11/12 06:35:34;;;;;;;11.65;6.75;;;;;;;2.51;100.00;103068.28;5109307;27;20392;-77
2022/11/12 06:38:18;;;;;;;12.15;7.97;;;;;;;2.49;100.00;103067.31;5080139;28;20177;-77
2022/11/12 06:41:03;;;;;;;11.57;7.65;;;;;;;2.48;100.00;103062.91;5084561;28;20051;-77
2022/11/12 06:43:47;;;;;;;13.90;7.10;;;;;;;2.47;100.00;103059.38;5095974;28;20411;-77
2022/11/12 06:46:31;;;;;;;11.20;7.82;;;;;;;2.48;100.00;103069.03;5093740;28;20526;-76
2022/11/12 06:49:15;;;;;;;14.02;7.85;;;;;;;2.48;100.00;103061.19;5083219;28;20059;-77
2022/11/12 06:51:59;;;;;;;14.63;8.45;;;;;;;2.50;100.00;103059.53;5073181;28;20047;-73
2022/11/12 06:54:43;;;;;;;10.82;7.45;;;;;;;2.51;100.00;103063.06;5092529;28;20070;-77
2022/11/12 06:57:27;;;;;;;13.07;7.05;;;;;;;2.55;100.00;103068.50;5095998;28;20063;-77
2022/11/12 07:00:11;;;;;;;13.10;8.02;;;;;;;2.58;100.00;103070.38;5081812;28;20105;-77
2022/11/12 07:02:55;;;;;;;15.52;8.38;;;;;;;2.61;100.00;103074.84;5082540;28;20561;-78
2022/11/12 07:05:39;;;;;;;14.52;8.32;;;;;;;2.63;100.00;103081.03;5078306;28;20071;-77
2022/11/12 07:08:23;;;;;;;16.27;7.63;;;;;;;2.65;100.00;103079.41;5080688;28;20055;-77
2022/11/12 07:11:10;;;;;;;13.90;7.78;;;;;;;2.66;100.00;103084.69;5083541;28;20048;-77
2022/11/12 07:13:54;;;;;;;16.63;7.75;;;;;;;2.71;100.00;103084.91;5087566;28;20051;-77
2022/11/12 07:16:38;;;;;;;12.40;7.70;;;;;;;2.73;100.00;103084.16;5085833;28;20109;-77
2022/11/12 07:19:22;;;;;;;13.18;8.93;;;;;;;2.75;100.00;103076.38;5080663;28;20047;-77
2022/11/12 07:22:06;;;;;;;15.10;8.05;;;;;;;2.77;100.00;103075.63;5083242;28;20051;-72
2022/11/12 07:24:50;;;;;;;14.05;7.50;;;;;;;2.82;100.00;103080.16;5075407;28;20090;-72
2022/11/12 07:27:34;;;;;;;12.00;7.88;;;;;;;2.84;100.00;103078.50;5070594;28;20043;-72
2022/11/12 07:30:18;;;;;;;12.68;7.53;;;;;;;2.87;100.00;103073.41;5070909;28;20452;-72
2022/11/12 07:33:02;;;;;;;11.88;8.30;;;;;;;2.89;100.00;103079.63;5067051;28;20052;-72
2022/11/12 07:35:46;;;;;;;13.45;8.18;;;;;;;2.92;100.00;103078.03;5065734;28;20185;-72
2022/11/12 07:38:33;;;;;;;16.13;8.00;;;;;;;2.95;100.00;103080.78;5071365;28;20056;-72
2022/11/12 07:41:24;;;;;;;14.02;8.55;;;;;;;2.99;100.00;103073.97;5069554;28;20098;-72
2022/11/12 07:44:08;;;;;;;10.48;7.75;;;;;;;3.04;100.00;103085.53;5067119;28;20075;-72
2022/11/12 07:46:52;;;;;;;14.38;7.70;;;;;;;3.09;100.00;103089.28;5054330;28;20063;-72
2022/11/12 07:49:36;;;;;;;14.52;7.18;;;;;;;3.13;100.00;103085.06;5053919;28;20059;-72
2022/11/12 07:52:20;;;;;;;16.95;8.68;;;;;;;3.20;100.00;103092.38;5066480;28;20060;-72
2022/11/12 07:55:05;;;;;;;16.58;7.90;;;;;;;3.25;100.00;103092.59;5058337;28;20106;-72
2022/11/12 07:57:49;;;;;;;10.30;6.75;;;;;;;3.32;100.00;103103.38;5059345;28;20060;-72
2022/11/12 08:00:33;;;;;;;12.23;8.32;;;;;;;3.39;100.00;103109.81;5059126;28;20399;-72
2022/11/12 08:03:18;;;;;;;14.50;7.95;;;;;;;3.45;100.00;103105.72;5053102;28;20124;-72
2022/11/12 08:06:03;;;;;;;17.13;8.02;;;;;;;3.54;100.00;103104.34;5059489;28;20114;-72
2022/11/12 08:08:50;;;;;;;18.40;8.93;;;;;;;3.62;100.00;103098.59;5053575;28;20052;-72
2022/11/12 08:11:34;;;;;;;14.70;8.13;;;;;;;3.73;100.00;103106.00;5057821;28;20106;-72
2022/11/12 08:14:18;;;;;;;13.82;8.82;;;;;;;3.79;100.00;103109.78;5061265;28;20514;-72
2022/11/12 08:17:02;;;;;;;13.65;9.48;;;;;;;3.87;100.00;103111.00;5066099;28;20087;-73
2022/11/12 08:19:46;;;;;;;20.55;10.15;;;;;;;3.95;100.00;103116.56;5066532;28;20055;-73
2022/11/12 08:22:30;;;;;;;16.88;10.48;;;;;;;4.03;100.00;103119.50;5067516;28;20779;-73
2022/11/12 08:25:14;;;;;;;16.30;10.05;;;;;;;4.12;100.00;103113.75;5051888;28;20098;-72
2022/11/12 08:27:59;;;;;;;14.88;10.00;;;;;;;4.20;100.00;103121.09;5081873;28;20161;-73
2022/11/12 08:30:43;;;;;;;14.57;9.75;;;;;;;4.31;100.00;103119.81;5074802;28;20134;-72
2022/11/12 08:33:27;;;;;;;17.52;10.65;;;;;;;4.41;100.00;103109.69;5068432;28;20129;-73
2022/11/12 08:36:14;;;;;;;16.23;10.30;;;;;;;4.51;100.00;103111.84;5061968;28;20111;-73
2022/11/12 08:38:58;;;;;;;19.60;9.30;;;;;;;4.60;100.00;103106.97;5065121;28;20594;-73
2022/11/12 08:41:42;;;;;;;15.75;9.60;;;;;;;4.69;100.00;103112.56;5072640;28;20407;-73
2022/11/12 08:44:26;;;;;;;14.07;9.77;;;;;;;4.78;100.00;103108.50;5079067;28;20051;-73
2022/11/12 08:47:10;;;;;;;14.38;10.02;;;;;;;4.90;100.00;103111.59;5082359;28;20104;-73
2022/11/12 08:49:54;;;;;;;17.40;9.75;;;;;;;5.04;100.00;103120.88;5078537;28;20573;-73
2022/11/12 08:52:38;;;;;;;18.23;9.52;;;;;;;5.15;100.00;103118.66;5059589;28;20051;-73
2022/11/12 08:55:22;;;;;;;18.13;10.43;;;;;;;5.26;100.00;103119.03;5053492;28;20040;-73
2022/11/12 08:58:07;;;;;;;15.82;9.77;;;;;;;5.34;100.00;103120.22;5064381;28;20055;-73
2022/11/12 09:00:51;;;;;;;12.70;9.48;;;;;;;5.44;100.00;103119.72;5060577;28;20047;-73
2022/11/12 09:03:36;;;;;;;13.60;8.30;;;;;;;5.55;100.00;103122.72;5059212;28;20059;-73
2022/11/12 09:06:20;;;;;;;13.05;9.85;;;;;;;5.66;99.93;103123.97;5063808;28;20143;-73
2022/11/12 09:09:04;;;;;;;12.27;8.35;;;;;;;5.78;99.45;103118.25;5056619;28;20161;-73
2022/11/12 09:11:48;;;;;;;18.45;9.07;;;;;;;5.91;99.04;103116.94;5059025;28;20504;-73
2022/11/12 09:14:31;;;;;;;17.73;9.38;;;;;;;6.01;98.98;103113.84;5056617;28;20465;-73
2022/11/12 09:17:15;;;;;;;13.43;9.18;;;;;;;6.13;97.96;103108.97;5074020;28;20047;-73
2022/11/12 09:19:59;;;;;;;16.05;9.07;;;;;;;6.23;97.10;103116.34;5072634;28;20087;-73
2022/11/12 09:22:43;;;;;;;16.20;8.73;;;;;;;6.33;97.19;103119.22;5062500;28;20506;-74
2022/11/12 09:25:28;;;;;;;13.38;9.00;;;;;;;6.43;96.16;103108.19;5068930;28;20052;-74
2022/11/12 09:28:14;;;;;;;16.13;7.78;;;;;;;6.55;97.33;103115.53;5056673;28;20055;-74
2022/11/12 09:30:58;;;;;;;12.18;8.68;;;;;;;6.67;96.63;103122.09;5069553;28;20051;-74
2022/11/12 09:33:42;;;;;;;12.32;8.55;;;;;;;6.80;95.75;103117.19;5061710;28;20052;-74
2022/11/12 09:36:26;;;;;;;12.63;8.93;;;;;;;6.93;96.05;103119.38;5051786;28;20055;-74
2022/11/12 09:39:10;;;;;;;13.60;8.25;;;;;;;7.06;95.72;103110.97;5067997;28;20042;-74
2022/11/12 09:41:56;;;;;;;14.10;8.23;;;;;;;7.16;94.78;103109.47;5072484;28;20122;-74
2022/11/12 09:44:42;;;;;;;12.05;8.43;;;;;;;7.24;94.56;103112.34;5063301;28;20090;-75
2022/11/12 09:47:45;;;;;;;13.45;8.02;;;;;;;7.34;95.29;103119.63;5054924;28;20534;-74
2022/11/12 09:50:39;;;;;;;13.20;8.68;;;;;;;7.43;95.59;103114.63;5060668;28;21219;-74
2022/11/12 09:53:49;;;;;;;11.00;8.55;;;;;;;7.54;95.43;103109.66;5059458;28;20059;-74
2022/11/12 09:56:33;;;;;;;14.73;8.98;;;;;;;7.65;95.26;103109.94;5058519;28;20044;-75
2022/11/12 09:59:17;;;;;;;12.23;8.88;;;;;;;7.77;94.21;103114.66;5066418;28;20103;-74
2022/11/12 10:02:17;;;;;;;11.70;8.23;;;;;;;7.89;93.61;103104.44;5073044;28;20044;-74
2022/11/12 10:05:40;;;;;;;15.30;9.45;;;;;;;8.04;93.95;103111.84;5060012;28;20047;-75
2022/11/12 10:08:51;;;;;;;12.80;9.40;;;;;;;8.18;93.42;103107.78;5052980;28;20121;-74
2022/11/12 10:18:42;;;;;;;14.73;9.88;;;;;;;8.74;93.50;103091.50;5060204;28;20119;-74
2022/11/12 10:21:40;;;;;;;12.20;9.52;;;;;;;8.91;92.94;103089.22;5063657;28;20055;-74
2022/11/12 10:24:32;;;;;;;14.80;9.48;;;;;;;9.01;90.88;103096.47;5056129;28;20047;-74
2022/11/12 10:27:27;;;;;;;11.27;8.60;;;;;;;9.12;90.08;103096.69;5071135;28;20143;-74
2022/11/12 10:30:18;;;;;;;12.70;8.73;;;;;;;9.25;88.59;103083.75;5058596;28;20090;-75
2022/11/12 10:33:02;;;;;;;14.50;8.70;;;;;;;9.42;92.75;103092.03;5054784;28;20147;-75
2022/11/12 10:35:47;;;;;;;12.57;9.20;;;;;;;9.60;93.39;103090.56;5063940;28;20669;-75
2022/11/12 10:38:33;;;;;;;16.88;10.88;;;;;;;9.82;94.73;103086.56;5060992;28;20055;-75
2022/11/12 10:41:21;;;;;;;14.50;10.50;;;;;;;9.99;92.23;103089.47;5066093;28;20113;-75
2022/11/12 10:44:12;;;;;;;11.93;9.10;;;;;;;10.07;90.94;103078.16;5068507;28;20130;-75
2022/11/12 10:47:29;;;;;;;14.52;8.48;;;;;;;10.16;88.82;103080.03;5069822;28;20051;-75
2022/11/12 10:50:20;;;;;;;12.00;8.77;;;;;;;10.25;86.58;103068.72;5070591;28;20503;-75
2022/11/12 10:53:09;;;;;;;13.18;8.90;;;;;;;10.36;87.26;103067.16;5059497;28;20097;-75
2022/11/12 10:55:56;;;;;;;12.57;7.70;;;;;;;10.51;84.22;103066.50;5057175;28;20748;-75
2022/11/12 10:58:40;;;;;;;13.57;8.98;;;;;;;10.70;88.04;103054.34;5056930;28;20063;-77
2022/11/12 11:01:24;;;;;;;14.90;9.75;;;;;;;10.94;88.59;103053.78;5055337;28;20388;-75
2022/11/12 11:04:33;;;;;;;17.25;10.45;;;;;;;11.17;91.01;103062.88;5049380;28;20102;-75
2022/11/12 11:07:23;;;;;;;12.18;9.02;;;;;;;11.37;84.69;103055.16;5067121;28;20094;-75
2022/11/12 11:10:31;;;;;;;12.95;8.60;;;;;;;11.58;85.98;103050.94;5059314;28;20056;-75
2022/11/12 11:13:25;;;;;;;10.07;7.95;;;;;;;11.73;79.71;103051.06;5060484;28;20098;-75
2022/11/12 11:16:13;;;;;;;11.63;9.07;;;;;;;11.92;84.06;103044.19;5050486;28;20044;-75
2022/11/12 11:19:02;;;;;;;11.25;8.50;;;;;;;11.97;78.12;103050.41;5064747;28;20051;-75
2022/11/12 11:21:50;;;;;;;13.95;8.10;;;;;;;12.04;75.42;103046.94;5053607;28;20060;-76
2022/11/12 11:24:38;;;;;;;13.38;8.63;;;;;;;12.13;77.09;103039.88;5067828;28;20044;-75
2022/11/12 11:27:37;;;;;;;14.90;8.98;;;;;;;12.26;80.15;103047.97;5068273;28;20067;-75
2022/11/12 11:30:22;;;;;;;17.85;9.65;;;;;;;12.36;77.39;103048.88;5054444;28;20127;-75
2022/11/12 11:33:18;;;;;;;10.88;8.38;;;;;;;12.54;80.84;103045.47;5058139;28;20569;-75
2022/11/12 11:36:11;;;;;;;14.73;9.07;;;;;;;12.80;80.01;103040.25;5067662;28;20109;-76
2022/11/12 11:39:02;;;;;;;16.48;9.73;;;;;;;13.15;81.57;103035.94;5058773;28;20052;-75
2022/11/12 11:41:53;;;;;;;;;;;;;;;13.35;85.26;103034.22;5072815;28;20047;-75
2022/11/12 11:44:48;;;;;;;11.57;8.90;;;;;;;13.76;79.86;103030.72;5072625;28;19999;-75
2022/11/12 11:47:54;;;;;;;12.73;8.88;;;;;;;14.09;77.18;103027.13;5085239;28;20098;-75
2022/11/12 11:51:00;;;;;;;11.35;8.77;;;;;;;14.25;78.44;103020.00;5062300;28;20087;-72
2022/11/12 11:54:28;;;;;;;11.48;9.02;;;;;;;14.49;80.93;103016.38;5062222;28;20039;-72
2022/11/12 11:57:21;;;;;;;12.50;8.50;;;;;;;14.71;72.13;103014.56;5062249;28;20047;-72
2022/11/12 12:00:21;;;;;;;11.38;8.82;;;;;;;14.86;74.45;103010.94;5067044;28;20558;-72
2022/11/12 12:03:15;;;;;;;16.30;9.30;;;;;;;14.91;74.07;103005.53;5068132;28;20050;-72
2022/11/12 12:06:23;;;;;;;11.43;8.57;;;;;;;15.07;76.28;102999.22;5062103;28;20122;-72
2022/11/12 12:09:16;;;;;;;13.13;9.40;;;;;;;15.51;74.69;102997.16;5062261;28;20144;-72
2022/11/12 12:12:16;;;;;;;13.63;9.00;;;;;;;15.83;73.67;102992.44;5057829;28;20044;-72
2022/11/12 12:15:37;;;;;;;14.05;9.23;;;;;;;16.11;71.93;102995.72;5072851;28;20095;-72
2022/11/12 12:18:30;;;;;;;11.82;8.77;;;;;;;16.00;65.84;102988.69;5063281;28;20102;-72
2022/11/12 12:21:19;;;;;;;12.98;9.50;;;;;;;15.96;68.12;102985.19;5061591;28;20113;-72
2022/11/12 12:24:24;;;;;;;14.63;8.90;;;;;;;15.96;70.79;102981.63;5055733;28;20048;-72
2022/11/12 12:27:19;;;;;;;17.13;9.25;;;;;;;15.93;68.78;102979.00;5057254;28;20079;-72
2022/11/12 12:30:13;;;;;;;15.32;9.43;;;;;;;16.11;64.92;102970.78;5053787;28;20047;-72
2022/11/12 12:33:42;;;;;;;13.70;8.57;;;;;;;16.38;68.29;102968.69;5063084;28;20135;-75
2022/11/12 12:36:49;;;;;;;13.32;7.72;;;;;;;16.33;66.25;102961.59;5053996;28;20141;-76
2022/11/12 12:39:42;;;;;;;12.43;9.48;;;;;;;16.15;63.26;102960.91;5059161;28;20044;-76
2022/11/12 12:42:36;;;;;;;15.00;8.93;;;;;;;15.94;63.09;102954.91;5052741;28;20044;-76
2022/11/12 12:45:32;;;;;;;12.63;8.77;;;;;;;15.85;65.78;102952.31;5057742;28;20365;-74
2022/11/12 12:48:22;;;;;;;13.02;8.55;;;;;;;16.14;66.82;102952.00;5071254;28;20066;-78
2022/11/12 12:51:06;;;;;;;14.88;8.85;;;;;;;16.25;62.99;102958.13;5067057;28;20396;-80
2022/11/12 12:53:50;;;;;;;13.13;8.82;;;;;;;16.33;64.89;102960.72;5062595;28;20047;-80
2022/11/12 12:56:34;;;;;;;12.07;8.57;;;;;;;16.55;64.16;102956.88;5056856;28;20051;-80
2022/11/12 12:59:22;;;;;;;12.88;8.63;;;;;;;16.75;63.30;102955.72;5061521;28;20526;-80
2022/11/12 13:02:24;;;;;;;12.70;8.52;;;;;;;16.97;65.06;102951.84;5068678;28;20175;-80
2022/11/12 13:05:28;;;;;;;12.55;8.20;;;;;;;17.03;64.00;102945.50;5065956;28;20043;-80
2022/11/12 13:08:19;;;;;;;14.43;8.00;;;;;;;16.98;60.45;102934.00;5072087;28;20093;-80
2022/11/12 13:11:04;;;;;;;12.15;8.52;;;;;;;16.97;61.25;102943.81;5072809;28;20170;-80
2022/11/12 13:13:48;;;;;;;16.45;8.15;;;;;;;16.93;60.80;102938.53;5072177;28;20052;-80
2022/11/12 13:16:50;;;;;;;10.95;8.13;;;;;;;16.84;62.28;102933.31;5067160;28;20067;-80
2022/11/12 13:19:46;;;;;;;11.63;8.20;;;;;;;16.66;61.18;102929.97;5075842;28;20384;-80
2022/11/12 13:22:50;;;;;;;10.45;8.00;;;;;;;16.53;62.79;102925.69;5068188;28;20059;-80